Anangel Excellence — 9HA4265 — position and weather

sailwx.info

Track history (hours):
 
Tides and Currents Weather Stations Pressure Air Temp Water Temp Dewpoint Dewpoint Depression Visibility Wind Speed Wind Dir Waves Ship Positions

Anangel Excellence

Last reported at 2018-Jan-12 07:06 UTC. Time now 2018-Jan-19 11:41 UTC.
Position N 36°07' W 004°26'.

Length 292 m; draft 14.2 m.

Type: Cargo ship. MMSI: 249495000.

Date/timePositionNaut miles runAvg speedWind from/ knotsBaromVisibWave heightAir tempDewpointWater temp
2018-Jan-12 07:06N 36°07' W 004°26'213.1
2018-Jan-12 06:59N 36°07' W 004°28'713.6
2018-Jan-12 06:28N 36°06' W 004°37'612.9
2018-Jan-12 05:59N 36°05' W 004°44'713.7
2018-Jan-12 05:27N 36°04' W 004°53'613.9
2018-Jan-12 05:01N 36°03' W 005°01'714.1
2018-Jan-12 04:30N 36°03' W 005°09'714.5
2018-Jan-12 04:00N 36°03' W 005°18'510.2
2018-Jan-12 03:30N 36°06' W 005°23'1 3.0
2018-Jan-12 03:01N 36°07' W 005°22'0 0.2
2018-Jan-12 02:28N 36°07' W 005°22'0 0.1
2018-Jan-12 01:58N 36°07' W 005°22'0 0.0
2018-Jan-12 01:28N 36°07' W 005°22'0 0.1
2018-Jan-12 00:59N 36°07' W 005°22'0 0.0
2018-Jan-12 00:28N 36°07' W 005°22'0 0.1
2018-Jan-12 00:01N 36°07' W 005°22'0 0.1
2018-Jan-11 23:28N 36°07' W 005°22'0 0.2
2018-Jan-11 22:58N 36°07' W 005°22'0 0.1
2018-Jan-11 22:28N 36°07' W 005°22'0 0.1
2018-Jan-11 21:58N 36°07' W 005°22'0 0.1
2018-Jan-11 21:28N 36°07' W 005°22'0 0.1
2018-Jan-11 21:01N 36°07' W 005°22'0 0.1
2018-Jan-11 20:28N 36°07' W 005°22'0 0.1
2018-Jan-11 19:58N 36°07' W 005°22'0 0.3
2018-Jan-11 19:28N 36°07' W 005°22'0 0.3
2018-Jan-11 18:55N 36°07' W 005°23'0 0.1
2018-Jan-11 18:26N 36°07' W 005°23'0 0.1
2018-Jan-11 17:58N 36°07' W 005°23'1 1.5
2018-Jan-11 17:30N 36°07' W 005°22'2 4.9
2018-Jan-11 17:00N 36°05' W 005°20'2 4.5
2018-Jan-11 16:30N 36°05' W 005°17'510.3
2018-Jan-11 16:00N 36°05' W 005°11'5 9.4
2018-Jan-11 15:30N 36°05' W 005°05'1 1.5
2018-Jan-11 14:58N 36°05' W 005°04'1 1.6
2018-Jan-11 14:30N 36°05' W 005°05'1 1.7
2018-Jan-11 13:57N 36°06' W 005°06'1 1.4
2018-Jan-11 13:09N 36°06' W 005°07'0 1.5
2018-Jan-11 12:57N 36°06' W 005°08'1 1.4
2018-Jan-11 12:30N 36°06' W 005°08'1 1.6
2018-Jan-11 11:59N 36°07' W 005°09'1 1.6
2018-Jan-11 11:30N 36°07' W 005°10'1 1.1
2018-Jan-11 10:59N 36°07' W 005°11'1 1.4
2018-Jan-11 10:30N 36°08' W 005°11'3 6.0
2018-Jan-11 10:00N 36°10' W 005°08'4 7.6
2018-Jan-11 09:28N 36°12' W 005°04'2 4.5
2018-Jan-11 09:00N 36°13' W 005°02'0 0.8
2018-Jan-11 08:29N 36°13' W 005°02'1 1.0
2018-Jan-11 08:00N 36°13' W 005°02'0 0.8
2018-Jan-11 07:30N 36°12' W 005°03'0 0.6
2018-Jan-11 07:00N 36°12' W 005°03'0 0.5
2018-Jan-11 06:28N 36°12' W 005°03'0 0.6
2018-Jan-11 06:00N 36°12' W 005°03'0 0.7
2018-Jan-11 05:28N 36°11' W 005°04'0 0.7
2018-Jan-11 04:58N 36°11' W 005°04'0 0.6
2018-Jan-11 04:29N 36°11' W 005°05'0 0.7
2018-Jan-11 04:00N 36°11' W 005°05'0 0.4
2018-Jan-11 03:31N 36°11' W 005°05'0 0.5
2018-Jan-11 02:58N 36°11' W 005°06'0 0.6
2018-Jan-11 02:29N 36°11' W 005°06'0 0.8
2018-Jan-11 02:00N 36°11' W 005°06'0 0.8
2018-Jan-11 01:30N 36°11' W 005°07'0 0.7
2018-Jan-11 01:00N 36°11' W 005°07'0 0.7
2018-Jan-11 00:30N 36°12' W 005°07'3 5.4
2018-Jan-10 23:59N 36°09' W 005°06'5 9.3
2018-Jan-10 23:30N 36°05' W 005°04'510.7
2018-Jan-10 23:00N 36°02' W 005°09'714.2
2018-Jan-10 22:31N 36°00' W 005°17'714.5
2018-Jan-10 22:01N 35°58' W 005°26'611.2
2018-Jan-10 21:31N 35°56' W 005°33'611.8
2018-Jan-10 21:01N 35°55' W 005°40'713.2
2018-Jan-10 20:30N 35°55' W 005°48'713.0
2018-Jan-10 20:00N 35°54' W 005°56'713.3
2018-Jan-10 19:30N 35°54' W 006°04'612.1
2018-Jan-10 19:00N 35°54' W 006°12'  
2018-Jan-07 19:08N 36°32' W 023°52'211.9
2018-Jan-07 19:00N 36°32' W 023°54'611.7
2018-Jan-07 18:30N 36°32' W 024°01'611.6
2018-Jan-07 18:00N 36°33' W 024°09'611.5
2018-Jan-07 17:30N 36°33' W 024°16'611.3
2018-Jan-07 17:00N 36°33' W 024°23'611.5
2018-Jan-07 16:30N 36°33' W 024°30'611.5
2018-Jan-07 16:00N 36°34' W 024°37'611.5
2018-Jan-07 15:30N 36°34' W 024°44'611.6
2018-Jan-07 15:01N 36°34' W 024°51'611.5
2018-Jan-07 14:30N 36°34' W 024°59'611.5
2018-Jan-07 14:00N 36°35' W 025°06'611.5
2018-Jan-07 13:31N 36°35' W 025°13'611.6
2018-Jan-07 13:01N 36°35' W 025°20'611.6
2018-Jan-07 12:30N 36°36' W 025°27'611.5
2018-Jan-07 12:00N 36°36' W 025°34'611.6
2018-Jan-07 11:31N 36°36' W 025°42'611.7
2018-Jan-07 11:00N 36°36' W 025°49'611.9
2018-Jan-07 10:30N 36°36' W 025°56'611.9
2018-Jan-07 10:00N 36°37' W 026°04'611.9
2018-Jan-07 09:31N 36°37' W 026°11'611.8
2018-Jan-07 09:00N 36°37' W 026°19'711.7
2018-Jan-07 08:23N 36°38' W 026°28'411.5
2018-Jan-07 08:00N 36°38' W 026°33'1611.8
2018-Jan-07 06:40N 36°39' W 026°53'9911.6
2018-Jan-06 22:10N 36°43' W 028°55'411.2
2018-Jan-06 21:46N 36°43' W 029°01'5111.8
2018-Jan-06 17:24N 36°45' W 030°05'612.0
2018-Jan-06 16:54N 36°46' W 030°13'511.8
2018-Jan-06 16:28N 36°46' W 030°19'1111.8
2018-Jan-06 15:31N 36°46' W 030°33'111.8
2018-Jan-06 15:25N 36°46' W 030°35'511.5
2018-Jan-06 14:56N 36°46' W 030°41'511.5
2018-Jan-06 14:30N 36°47' W 030°48'611.6
2018-Jan-06 14:00N 36°47' W 030°55'611.5
2018-Jan-06 13:31N 36°47' W 031°02'711.7
2018-Jan-06 12:53N 36°48' W 031°11'511.8
2018-Jan-06 12:26N 36°48' W 031°18'1411.7
2018-Jan-06 11:12N 36°49' W 031°36'1811.9
2018-Jan-06 09:39N 36°49' W 031°59'211.7
2018-Jan-06 09:30N 36°50' W 032°01'712.0
2018-Jan-06 08:56N 36°50' W 032°09'611.7
2018-Jan-06 08:26N 36°50' W 032°17'511.7
2018-Jan-06 08:00N 36°50' W 032°23'711.9
2018-Jan-06 07:25N 36°51' W 032°32'511.7
2018-Jan-06 06:58N 36°51' W 032°38'511.6
2018-Jan-06 06:31N 36°51' W 032°45'611.8
2018-Jan-06 06:01N 36°51' W 032°52'811.9
2018-Jan-06 05:22N 36°52' W 033°02'  
Track history (hours):
 
Tides and Currents Weather Stations Pressure Air Temp Water Temp Dewpoint Dewpoint Depression Visibility Wind Speed Wind Dir Waves Ship Positions

Anangel Excellence

Last reported at 2018-Jan-12 07:06 UTC. Time now 2018-Jan-19 11:41 UTC.
Position N 36°07' W 004°26'.

Length 292 m; draft 14.2 m.

Type: Cargo ship. MMSI: 249495000.

Date/timePositionNaut miles runAvg speedWind from/ knotsBaromVisibWave heightAir tempDewpointWater temp
2018-Jan-12 07:06N 36°07' W 004°26'213.1
2018-Jan-12 06:59N 36°07' W 004°28'713.6
2018-Jan-12 06:28N 36°06' W 004°37'612.9
2018-Jan-12 05:59N 36°05' W 004°44'713.7
2018-Jan-12 05:27N 36°04' W 004°53'613.9
2018-Jan-12 05:01N 36°03' W 005°01'714.1
2018-Jan-12 04:30N 36°03' W 005°09'714.5
2018-Jan-12 04:00N 36°03' W 005°18'510.2
2018-Jan-12 03:30N 36°06' W 005°23'1 3.0
2018-Jan-12 03:01N 36°07' W 005°22'0 0.2
2018-Jan-12 02:28N 36°07' W 005°22'0 0.1
2018-Jan-12 01:58N 36°07' W 005°22'0 0.0
2018-Jan-12 01:28N 36°07' W 005°22'0 0.1
2018-Jan-12 00:59N 36°07' W 005°22'0 0.0
2018-Jan-12 00:28N 36°07' W 005°22'0 0.1
2018-Jan-12 00:01N 36°07' W 005°22'0 0.1
2018-Jan-11 23:28N 36°07' W 005°22'0 0.2
2018-Jan-11 22:58N 36°07' W 005°22'0 0.1
2018-Jan-11 22:28N 36°07' W 005°22'0 0.1
2018-Jan-11 21:58N 36°07' W 005°22'0 0.1
2018-Jan-11 21:28N 36°07' W 005°22'0 0.1
2018-Jan-11 21:01N 36°07' W 005°22'0 0.1
2018-Jan-11 20:28N 36°07' W 005°22'0 0.1
2018-Jan-11 19:58N 36°07' W 005°22'0 0.3
2018-Jan-11 19:28N 36°07' W 005°22'0 0.3
2018-Jan-11 18:55N 36°07' W 005°23'0 0.1
2018-Jan-11 18:26N 36°07' W 005°23'0 0.1
2018-Jan-11 17:58N 36°07' W 005°23'1 1.5
2018-Jan-11 17:30N 36°07' W 005°22'2 4.9
2018-Jan-11 17:00N 36°05' W 005°20'2 4.5
2018-Jan-11 16:30N 36°05' W 005°17'510.3
2018-Jan-11 16:00N 36°05' W 005°11'5 9.4
2018-Jan-11 15:30N 36°05' W 005°05'1 1.5
2018-Jan-11 14:58N 36°05' W 005°04'1 1.6
2018-Jan-11 14:30N 36°05' W 005°05'1 1.7
2018-Jan-11 13:57N 36°06' W 005°06'1 1.4
2018-Jan-11 13:09N 36°06' W 005°07'0 1.5
2018-Jan-11 12:57N 36°06' W 005°08'1 1.4
2018-Jan-11 12:30N 36°06' W 005°08'1 1.6
2018-Jan-11 11:59N 36°07' W 005°09'1 1.6
2018-Jan-11 11:30N 36°07' W 005°10'1 1.1
2018-Jan-11 10:59N 36°07' W 005°11'1 1.4
2018-Jan-11 10:30N 36°08' W 005°11'3 6.0
2018-Jan-11 10:00N 36°10' W 005°08'4 7.6
2018-Jan-11 09:28N 36°12' W 005°04'2 4.5
2018-Jan-11 09:00N 36°13' W 005°02'0 0.8
2018-Jan-11 08:29N 36°13' W 005°02'1 1.0
2018-Jan-11 08:00N 36°13' W 005°02'0 0.8
2018-Jan-11 07:30N 36°12' W 005°03'0 0.6
2018-Jan-11 07:00N 36°12' W 005°03'0 0.5
2018-Jan-11 06:28N 36°12' W 005°03'0 0.6
2018-Jan-11 06:00N 36°12' W 005°03'0 0.7
2018-Jan-11 05:28N 36°11' W 005°04'0 0.7
2018-Jan-11 04:58N 36°11' W 005°04'0 0.6
2018-Jan-11 04:29N 36°11' W 005°05'0 0.7
2018-Jan-11 04:00N 36°11' W 005°05'0 0.4
2018-Jan-11 03:31N 36°11' W 005°05'0 0.5
2018-Jan-11 02:58N 36°11' W 005°06'0 0.6
2018-Jan-11 02:29N 36°11' W 005°06'0 0.8
2018-Jan-11 02:00N 36°11' W 005°06'0 0.8
2018-Jan-11 01:30N 36°11' W 005°07'0 0.7
2018-Jan-11 01:00N 36°11' W 005°07'0 0.7
2018-Jan-11 00:30N 36°12' W 005°07'3 5.4
2018-Jan-10 23:59N 36°09' W 005°06'5 9.3
2018-Jan-10 23:30N 36°05' W 005°04'510.7
2018-Jan-10 23:00N 36°02' W 005°09'714.2
2018-Jan-10 22:31N 36°00' W 005°17'714.5
2018-Jan-10 22:01N 35°58' W 005°26'611.2
2018-Jan-10 21:31N 35°56' W 005°33'611.8
2018-Jan-10 21:01N 35°55' W 005°40'713.2
2018-Jan-10 20:30N 35°55' W 005°48'713.0
2018-Jan-10 20:00N 35°54' W 005°56'713.3
2018-Jan-10 19:30N 35°54' W 006°04'612.1
2018-Jan-10 19:00N 35°54' W 006°12'  
2018-Jan-07 19:08N 36°32' W 023°52'211.9
2018-Jan-07 19:00N 36°32' W 023°54'611.7
2018-Jan-07 18:30N 36°32' W 024°01'611.6
2018-Jan-07 18:00N 36°33' W 024°09'611.5
2018-Jan-07 17:30N 36°33' W 024°16'611.3
2018-Jan-07 17:00N 36°33' W 024°23'611.5
2018-Jan-07 16:30N 36°33' W 024°30'611.5
2018-Jan-07 16:00N 36°34' W 024°37'611.5
2018-Jan-07 15:30N 36°34' W 024°44'611.6
2018-Jan-07 15:01N 36°34' W 024°51'611.5
2018-Jan-07 14:30N 36°34' W 024°59'611.5
2018-Jan-07 14:00N 36°35' W 025°06'611.5
2018-Jan-07 13:31N 36°35' W 025°13'611.6
2018-Jan-07 13:01N 36°35' W 025°20'611.6
2018-Jan-07 12:30N 36°36' W 025°27'611.5
2018-Jan-07 12:00N 36°36' W 025°34'611.6
2018-Jan-07 11:31N 36°36' W 025°42'611.7
2018-Jan-07 11:00N 36°36' W 025°49'611.9
2018-Jan-07 10:30N 36°36' W 025°56'611.9
2018-Jan-07 10:00N 36°37' W 026°04'611.9
2018-Jan-07 09:31N 36°37' W 026°11'611.8
2018-Jan-07 09:00N 36°37' W 026°19'711.7
2018-Jan-07 08:23N 36°38' W 026°28'411.5
2018-Jan-07 08:00N 36°38' W 026°33'1611.8
2018-Jan-07 06:40N 36°39' W 026°53'9911.6
2018-Jan-06 22:10N 36°43' W 028°55'411.2
2018-Jan-06 21:46N 36°43' W 029°01'5111.8
2018-Jan-06 17:24N 36°45' W 030°05'612.0
2018-Jan-06 16:54N 36°46' W 030°13'511.8
2018-Jan-06 16:28N 36°46' W 030°19'1111.8
2018-Jan-06 15:31N 36°46' W 030°33'111.8
2018-Jan-06 15:25N 36°46' W 030°35'511.5
2018-Jan-06 14:56N 36°46' W 030°41'511.5
2018-Jan-06 14:30N 36°47' W 030°48'611.6
2018-Jan-06 14:00N 36°47' W 030°55'611.5
2018-Jan-06 13:31N 36°47' W 031°02'711.7
2018-Jan-06 12:53N 36°48' W 031°11'511.8
2018-Jan-06 12:26N 36°48' W 031°18'1411.7
2018-Jan-06 11:12N 36°49' W 031°36'1811.9
2018-Jan-06 09:39N 36°49' W 031°59'211.7
2018-Jan-06 09:30N 36°50' W 032°01'712.0
2018-Jan-06 08:56N 36°50' W 032°09'611.7
2018-Jan-06 08:26N 36°50' W 032°17'511.7
2018-Jan-06 08:00N 36°50' W 032°23'711.9
2018-Jan-06 07:25N 36°51' W 032°32'511.7
2018-Jan-06 06:58N 36°51' W 032°38'511.6
2018-Jan-06 06:31N 36°51' W 032°45'611.8
2018-Jan-06 06:01N 36°51' W 032°52'811.9
2018-Jan-06 05:22N 36°52' W 033°02'  

Dump ship's entire track history